Time;durP1;ratioP1;P1;durP2;ratioP2;P2;SDS_P1;SDS_P2;PMS_P1;PMS_P2;Temp;Humidity;BMP_temperature;BMP_pressure;BME280_temperature;BME280_humidity;BME280_pressure;Samples;Min_cycle;Max_cycle;Signal;HPM_P1;HPM_P2
2021/04/14 00:00:08;;;;;;;;;;;19.90;57.30;;;;;;5034077;28;1420;-66
2021/04/14 00:02:34;;;;;;;;;;;19.80;57.80;;;;;;5051657;28;1469;-66
2021/04/14 00:04:59;;;;;;;;;;;19.80;57.30;;;;;;5033803;28;1373;-66
2021/04/14 00:07:25;;;;;;;;;;;19.80;57.30;;;;;;5033656;28;1639;-67
2021/04/14 00:09:50;;;;;;;;;;;19.80;57.30;;;;;;5052319;28;1895;-66
2021/04/14 00:12:15;;;;;;;;;;;19.80;57.30;;;;;;5055786;28;1338;-66
2021/04/14 00:14:41;;;;;;;;;;;19.80;57.30;;;;;;5037997;28;1388;-67
2021/04/14 00:17:06;;;;;;;;;;;19.80;57.30;;;;;;5037613;28;1735;-67
2021/04/14 00:19:32;;;;;;;;;;;19.80;57.30;;;;;;5055292;28;1239;-67
2021/04/14 00:21:57;;;;;;;;;;;19.80;57.30;;;;;;5037907;28;1404;-67
2021/04/14 00:24:23;;;;;;;;;;;19.80;57.30;;;;;;5037846;28;1626;-67
2021/04/14 00:26:49;;;;;;;;;;;19.80;57.30;;;;;;5055400;28;1438;-67
2021/04/14 00:29:14;;;;;;;;;;;19.80;57.30;;;;;;5020885;28;1898;-66
2021/04/14 00:31:39;;;;;;;;;;;19.80;57.40;;;;;;5037504;28;1322;-67
2021/04/14 00:34:12;;;;;;;;;;;19.80;57.40;;;;;;5055303;28;1692;-67
2021/04/14 00:36:37;;;;;;;;;;;19.80;57.40;;;;;;5055129;28;1373;-67
2021/04/14 00:39:06;;;;;;;;;;;19.80;57.40;;;;;;5036827;28;1499;-66
2021/04/14 00:41:32;;;;;;;;;;;19.80;57.40;;;;;;5055078;28;1402;-66
2021/04/14 00:43:57;;;;;;;;;;;19.80;57.40;;;;;;5037159;28;1431;-66
2021/04/14 00:46:23;;;;;;;;;;;19.80;57.40;;;;;;5055028;28;1712;-67
2021/04/14 00:48:48;;;;;;;;;;;19.80;57.40;;;;;;5054123;28;1323;-67
2021/04/14 00:51:14;;;;;;;;;;;19.80;57.40;;;;;;5054798;28;1953;-66
2021/04/14 00:53:40;;;;;;;;;;;19.80;57.40;;;;;;5054670;28;1474;-66
2021/04/14 00:56:05;;;;;;;;;;;19.80;57.40;;;;;;5037021;28;1263;-66
2021/04/14 00:58:31;;;;;;;;;;;19.80;57.50;;;;;;5054264;28;1687;-67
2021/04/14 01:00:56;;;;;;;;;;;19.80;57.50;;;;;;5054641;28;1651;-67
2021/04/14 01:03:32;;;;;;;;;;;19.80;57.40;;;;;;5054414;28;1371;-67
2021/04/14 01:05:58;;;;;;;;;;;19.70;57.40;;;;;;5037059;28;1707;-66
2021/04/14 01:08:23;;;;;;;;;;;19.70;57.40;;;;;;5054217;28;1488;-67
2021/04/14 01:10:49;;;;;;;;;;;19.70;57.40;;;;;;5036682;28;1963;-67
2021/04/14 01:13:14;;;;;;;;;;;19.70;57.40;;;;;;5054256;28;1371;-67
2021/04/14 01:15:43;;;;;;;;;;;19.70;57.40;;;;;;5053681;28;1348;-68
2021/04/14 01:18:09;;;;;;;;;;;19.70;57.40;;;;;;5053774;28;1383;-67
2021/04/14 01:20:35;;;;;;;;;;;19.70;57.50;;;;;;5054404;28;1366;-67
2021/04/14 01:23:00;;;;;;;;;;;19.70;57.50;;;;;;5053426;28;1495;-67
2021/04/14 01:25:27;;;;;;;;;;;19.70;57.50;;;;;;5037728;28;1391;-67
2021/04/14 01:27:53;;;;;;;;;;;19.70;57.50;;;;;;5037021;28;1640;-67
2021/04/14 01:30:23;;;;;;;;;;;19.70;57.50;;;;;;5037205;28;1972;-68
2021/04/14 01:32:48;;;;;;;;;;;19.70;57.50;;;;;;5032791;28;1144;-67
2021/04/14 01:35:14;;;;;;;;;;;19.70;57.50;;;;;;5042382;28;1224;-68
2021/04/14 01:37:39;;;;;;;;;;;19.70;57.50;;;;;;5039820;28;1284;-68
2021/04/14 01:40:06;;;;;;;;;;;19.70;57.50;;;;;;5041035;28;1224;-68
2021/04/14 01:42:31;;;;;;;;;;;19.70;57.50;;;;;;5039299;28;1216;-69
2021/04/14 01:44:56;;;;;;;;;;;19.70;57.50;;;;;;5042136;28;1271;-67
2021/04/14 01:47:22;;;;;;;;;;;19.70;57.50;;;;;;5043716;28;1206;-68
2021/04/14 01:49:47;;;;;;;;;;;19.70;57.50;;;;;;5043570;28;1906;-69
2021/04/14 01:52:13;;;;;;;;;;;19.70;57.40;;;;;;5039152;28;1285;-68
2021/04/14 01:54:38;;;;;;;;;;;19.70;57.40;;;;;;5044049;28;1205;-67
2021/04/14 01:57:04;;;;;;;;;;;19.70;57.40;;;;;;5043822;28;1259;-68
2021/04/14 01:59:29;;;;;;;;;;;19.70;57.40;;;;;;5040992;28;1362;-68
2021/04/14 02:01:54;;;;;;;;;;;19.80;57.40;;;;;;5051237;28;1284;-67
2021/04/14 02:04:20;;;;;;;;;;;19.80;57.40;;;;;;5054134;28;1650;-67
2021/04/14 02:06:45;;;;;;;;;;;19.80;57.30;;;;;;5054334;28;1633;-68
2021/04/14 02:09:11;;;;;;;;;;;19.80;57.30;;;;;;5054349;28;1980;-67
2021/04/14 02:11:36;;;;;;;;;;;19.80;57.30;;;;;;5054640;28;1029;-67
2021/04/14 02:14:02;;;;;;;;;;;19.80;57.30;;;;;;5035756;28;1457;-67
2021/04/14 02:16:27;;;;;;;;;;;19.80;57.30;;;;;;5036629;28;1681;-67
2021/04/14 02:18:53;;;;;;;;;;;19.80;57.30;;;;;;5054128;28;1694;-67
2021/04/14 02:21:19;;;;;;;;;;;19.80;57.30;;;;;;5036929;28;1651;-66
2021/04/14 02:23:44;;;;;;;;;;;19.80;57.30;;;;;;5036616;28;1645;-67
2021/04/14 02:26:11;;;;;;;;;;;19.80;57.30;;;;;;5054485;28;1199;-67
2021/04/14 02:28:37;;;;;;;;;;;19.80;57.30;;;;;;5036104;28;1695;-67
2021/04/14 02:31:02;;;;;;;;;;;19.80;57.30;;;;;;5036381;28;1977;-66
2021/04/14 02:33:28;;;;;;;;;;;19.80;57.20;;;;;;5053949;28;1175;-66
2021/04/14 02:35:53;;;;;;;;;;;19.80;57.20;;;;;;5036375;28;1174;-66
2021/04/14 02:38:19;;;;;;;;;;;19.80;57.20;;;;;;5053702;28;1370;-66
2021/04/14 02:40:44;;;;;;;;;;;19.80;57.20;;;;;;5036240;28;1411;-66
2021/04/14 02:43:10;;;;;;;;;;;19.80;57.10;;;;;;5054042;28;1679;-66
2021/04/14 02:45:36;;;;;;;;;;;19.80;57.10;;;;;;5053913;28;1406;-66
2021/04/14 02:48:01;;;;;;;;;;;19.90;57.00;;;;;;5035744;28;1367;-66
2021/04/14 02:50:26;;;;;;;;;;;20.00;57.00;;;;;;5036209;28;1969;-65
2021/04/14 02:52:52;;;;;;;;;;;20.10;56.80;;;;;;5053687;28;1226;-67
2021/04/14 02:55:18;;;;;;;;;;;20.20;56.60;;;;;;5053860;28;1398;-67
2021/04/14 02:57:43;;;;;;;;;;;20.30;56.50;;;;;;5035597;28;1428;-67
2021/04/14 03:00:09;;;;;;;;;;;20.40;56.20;;;;;;5053634;28;1401;-67
2021/04/14 03:02:35;;;;;;;;;;;20.50;56.00;;;;;;5035790;28;1546;-67
2021/04/14 03:05:00;;;;;;;;;;;20.60;55.80;;;;;;5053642;28;1456;-67
2021/04/14 03:07:26;;;;;;;;;;;20.70;55.50;;;;;;5053293;28;1680;-66
2021/04/14 03:09:51;;;;;;;;;;;20.80;55.30;;;;;;5053589;28;1968;-67
2021/04/14 03:12:17;;;;;;;;;;;20.90;55.10;;;;;;5015917;28;1564;-67
2021/04/14 03:14:42;;;;;;;;;;;20.90;54.90;;;;;;5047230;28;1414;-67
2021/04/14 03:17:08;;;;;;;;;;;21.00;54.80;;;;;;5053097;28;1863;-67
2021/04/14 03:19:33;;;;;;;;;;;21.00;54.70;;;;;;5053422;28;1386;-67
2021/04/14 03:21:58;;;;;;;;;;;21.10;54.60;;;;;;5053303;28;1547;-66
2021/04/14 03:24:24;;;;;;;;;;;21.20;54.50;;;;;;5035599;28;1373;-66
2021/04/14 03:26:49;;;;;;;;;;;21.20;54.40;;;;;;5053188;28;1222;-66
2021/04/14 03:29:15;;;;;;;;;;;21.20;54.30;;;;;;5052753;28;1973;-66
2021/04/14 03:31:40;;;;;;;;;;;21.30;54.20;;;;;;5035429;28;1270;-66
2021/04/14 03:34:05;;;;;;;;;;;21.30;54.10;;;;;;5035546;28;1434;-66
2021/04/14 03:36:31;;;;;;;;;;;21.30;54.10;;;;;;5053181;28;1541;-66
2021/04/14 03:38:56;;;;;;;;;;;21.30;54.30;;;;;;5034920;28;1406;-66
2021/04/14 03:41:22;;;;;;;;;;;21.40;54.10;;;;;;5053259;28;1527;-66
2021/04/14 03:43:49;;;;;;;;;;;21.40;54.00;;;;;;5052811;28;1382;-66
2021/04/14 03:46:16;;;;;;;;;;;21.40;54.00;;;;;;5034893;28;1230;-66
2021/04/14 03:48:42;;;;;;;;;;;21.40;54.00;;;;;;5076265;22;3696;-67
2021/04/14 03:51:07;;;;;;;;;;;21.40;54.00;;;;;;5046824;28;1914;-68
2021/04/14 03:53:34;;;;;;;;;;;21.40;54.00;;;;;;5066621;28;1464;-68
2021/04/14 03:56:01;;;;;;;;;;;21.40;54.00;;;;;;5055383;28;1738;-68
2021/04/14 03:58:26;;;;;;;;;;;21.40;54.00;;;;;;5053119;28;1610;-68
2021/04/14 04:00:52;;;;;;;;;;;21.40;54.10;;;;;;5035074;28;1694;-67
2021/04/14 04:03:18;;;;;;;;;;;21.40;54.10;;;;;;5052812;28;1451;-67
2021/04/14 04:05:44;;;;;;;;;;;21.40;54.10;;;;;;5059236;28;1436;-67
2021/04/14 04:08:10;;;;;;;;;;;21.40;54.10;;;;;;5041739;28;1371;-68
2021/04/14 04:10:35;;;;;;;;;;;21.40;54.20;;;;;;5052679;28;1898;-68
2021/04/14 04:13:01;;;;;;;;;;;21.30;54.20;;;;;;5052701;28;1374;-67
2021/04/14 04:15:26;;;;;;;;;;;21.30;54.20;;;;;;5052515;28;1537;-68
2021/04/14 04:17:52;;;;;;;;;;;21.30;54.30;;;;;;5052385;28;1673;-68
2021/04/14 04:20:17;;;;;;;;;;;21.30;54.30;;;;;;5034677;28;1269;-67
2021/04/14 04:22:42;;;;;;;;;;;21.30;54.40;;;;;;5052630;28;1360;-67
2021/04/14 04:25:08;;;;;;;;;;;21.30;54.40;;;;;;5047865;28;1508;-68
2021/04/14 04:27:33;;;;;;;;;;;21.20;54.40;;;;;;5044768;28;1710;-67
2021/04/14 04:29:59;;;;;;;;;;;21.20;54.50;;;;;;5034713;28;1957;-67
2021/04/14 04:32:24;;;;;;;;;;;21.20;54.50;;;;;;5034785;28;1726;-68
2021/04/14 04:34:50;;;;;;;;;;;21.20;54.60;;;;;;5052673;28;1493;-68
2021/04/14 04:37:15;;;;;;;;;;;21.10;54.60;;;;;;5034452;28;1154;-67
2021/04/14 04:39:41;;;;;;;;;;;21.10;54.70;;;;;;5052549;28;1749;-68
2021/04/14 04:42:07;;;;;;;;;;;21.10;54.70;;;;;;5052364;28;1400;-68
2021/04/14 04:44:32;;;;;;;;;;;21.10;54.70;;;;;;5052433;28;1506;-67
2021/04/14 04:46:58;;;;;;;;;;;21.10;54.70;;;;;;5051986;28;1119;-68
2021/04/14 04:49:23;;;;;;;;;;;21.10;54.80;;;;;;5034087;28;1898;-68
2021/04/14 04:51:48;;;;;;;;;;;21.10;54.90;;;;;;5052372;28;1223;-68
2021/04/14 04:54:14;;;;;;;;;;;21.00;54.90;;;;;;5052212;28;1442;-67
2021/04/14 04:56:39;;;;;;;;;;;21.00;54.90;;;;;;5054499;28;1674;-68
2021/04/14 04:59:05;;;;;;;;;;;21.00;54.90;;;;;;5055620;28;1807;-69
2021/04/14 05:01:30;;;;;;;;;;;21.00;55.00;;;;;;5056233;28;1645;-69
2021/04/14 05:03:56;;;;;;;;;;;21.00;55.00;;;;;;5038269;28;1614;-68
2021/04/14 05:06:21;;;;;;;;;;;21.00;55.00;;;;;;5038286;28;1643;-68
2021/04/14 05:08:47;;;;;;;;;;;20.90;55.00;;;;;;5055633;28;1616;-68
2021/04/14 05:11:12;;;;;;;;;;;21.00;55.20;;;;;;5039079;28;1898;-68
2021/04/14 05:13:37;;;;;;;;;;;20.90;55.10;;;;;;5055231;28;1235;-68
2021/04/14 05:16:03;;;;;;;;;;;20.90;55.20;;;;;;5055829;28;1445;-67
2021/04/14 05:18:30;;;;;;;;;;;20.90;55.20;;;;;;5055518;28;1625;-67
2021/04/14 05:20:56;;;;;;;;;;;20.90;55.20;;;;;;5055711;28;1715;-67
2021/04/14 05:23:21;;;;;;;;;;;20.90;55.20;;;;;;5055657;28;1433;-67
2021/04/14 05:25:47;;;;;;;;;;;20.90;55.30;;;;;;5045502;28;1679;-67
2021/04/14 05:28:14;;;;;;;;;;;20.90;55.30;;;;;;5053066;28;1586;-67
2021/04/14 05:30:40;;;;;;;;;;;20.90;55.30;;;;;;5037897;28;1973;-67
2021/04/14 05:33:06;;;;;;;;;;;20.90;55.40;;;;;;5055399;28;1688;-67
2021/04/14 05:35:32;;;;;;;;;;;20.90;55.30;;;;;;5054981;28;1364;-66
2021/04/14 05:37:57;;;;;;;;;;;20.90;55.40;;;;;;5036429;28;1480;-68
2021/04/14 05:40:23;;;;;;;;;;;20.80;55.90;;;;;;5037519;28;1604;-67
2021/04/14 05:42:48;;;;;;;;;;;20.80;55.40;;;;;;5055539;28;1678;-67
2021/04/14 05:45:15;;;;;;;;;;;20.80;55.40;;;;;;5055217;28;1378;-67
2021/04/14 05:47:40;;;;;;;;;;;20.80;55.40;;;;;;5054932;28;1707;-67
2021/04/14 05:50:07;;;;;;;;;;;20.80;55.40;;;;;;5055148;28;1906;-66
2021/04/14 05:52:32;;;;;;;;;;;20.80;55.50;;;;;;5037138;28;1706;-67
2021/04/14 05:54:58;;;;;;;;;;;20.80;55.50;;;;;;5055111;28;1749;-67
2021/04/14 05:57:23;;;;;;;;;;;20.80;55.50;;;;;;5036826;28;1793;-67
2021/04/14 05:59:48;;;;;;;;;;;20.80;55.50;;;;;;5037170;28;1642;-66
2021/04/14 06:02:14;;;;;;;;;;;20.80;55.60;;;;;;5054804;28;1426;-67
2021/04/14 06:04:39;;;;;;;;;;;20.80;55.60;;;;;;5055004;28;1036;-68
2021/04/14 06:07:05;;;;;;;;;;;20.70;55.60;;;;;;5036485;28;1704;-67
2021/04/14 06:09:30;;;;;;;;;;;20.70;55.60;;;;;;5054125;28;1967;-67
2021/04/14 06:11:56;;;;;;;;;;;20.70;55.60;;;;;;5054773;28;1696;-67
2021/04/14 06:14:21;;;;;;;;;;;20.70;55.70;;;;;;5053873;28;1524;-67
2021/04/14 06:16:46;;;;;;;;;;;20.70;55.70;;;;;;5054820;28;1714;-68
2021/04/14 06:19:12;;;;;;;;;;;20.70;55.70;;;;;;5051082;28;1290;-69
2021/04/14 06:21:38;;;;;;;;;;;20.70;55.80;;;;;;5049579;28;1611;-69
2021/04/14 06:24:04;;;;;;;;;;;20.70;55.80;;;;;;5035880;28;1982;-69
2021/04/14 06:26:38;;;;;;;;;;;20.60;55.80;;;;;;5048958;28;2165;-66
2021/04/14 06:29:03;;;;;;;;;;;20.60;55.80;;;;;;5043912;28;1370;-67
2021/04/14 06:31:29;;;;;;;;;;;20.60;55.80;;;;;;5052520;28;1899;-67
2021/04/14 06:33:55;;;;;;;;;;;20.60;55.90;;;;;;5036451;28;1721;-67
2021/04/14 06:36:20;;;;;;;;;;;20.60;55.90;;;;;;5035409;28;1598;-67
2021/04/14 06:38:48;;;;;;;;;;;20.60;55.90;;;;;;5050301;28;1269;-68
2021/04/14 06:41:33;;;;;;;;;;;20.60;55.90;;;;;;5053996;28;1719;-68
2021/04/14 06:44:00;;;;;;;;;;;20.60;55.90;;;;;;5053827;28;1712;-69
2021/04/14 06:46:26;;;;;;;;;;;20.60;55.90;;;;;;5054210;28;1595;-68
2021/04/14 06:48:57;;;;;;;;;;;20.60;56.00;;;;;;5035585;28;1537;-68
2021/04/14 06:51:25;;;;;;;;;;;20.50;55.90;;;;;;5035709;28;1956;-68
2021/04/14 06:53:59;;;;;;;;;;;20.50;55.90;;;;;;5048252;28;1297;-68
2021/04/14 06:56:25;;;;;;;;;;;20.50;56.00;;;;;;5035976;28;1647;-69
2021/04/14 06:58:53;;;;;;;;;;;20.50;56.00;;;;;;5035526;28;1633;-68
2021/04/14 07:01:36;;;;;;;;;;;20.50;56.00;;;;;;5019483;28;2320;-69
2021/04/14 07:04:09;;;;;;;;;;;20.50;56.10;;;;;;5035885;28;1308;-70
2021/04/14 07:06:37;;;;;;;;;;;20.50;56.10;;;;;;5035807;28;1450;-69
2021/04/14 07:09:04;;;;;;;;;;;20.50;56.10;;;;;;5052103;28;1738;-70
2021/04/14 07:11:30;;;;;;;;;;;20.50;56.20;;;;;;5052285;28;1898;-67
2021/04/14 07:13:55;;;;;;;;;;;20.40;56.10;;;;;;5052228;28;1186;-68
2021/04/14 07:16:24;;;;;;;;;;;20.40;56.10;;;;;;5046471;28;2919;-69
2021/04/14 07:18:56;;;;;;;;;;;20.40;56.20;;;;;;5044380;28;1364;-69
2021/04/14 07:21:37;;;;;;;;;;;20.40;56.20;;;;;;5032821;28;1646;-68
2021/04/14 07:24:03;;;;;;;;;;;20.50;56.30;;;;;;5035485;28;1382;-69
2021/04/14 07:26:32;;;;;;;;;;;20.40;56.20;;;;;;5026729;28;1417;-69
2021/04/14 07:29:06;;;;;;;;;;;20.50;56.30;;;;;;5041080;28;1579;-70
2021/04/14 07:31:31;;;;;;;;;;;20.40;56.30;;;;;;5051612;28;1947;-68
2021/04/14 07:34:02;;;;;;;;;;;20.40;56.30;;;;;;5053320;28;1246;-70
2021/04/14 07:36:34;;;;;;;;;;;20.40;56.30;;;;;;5035396;28;1659;-69
2021/04/14 07:38:59;;;;;;;;;;;20.40;56.40;;;;;;5035232;28;1629;-70
2021/04/14 07:41:40;;;;;;;;;;;20.40;56.40;;;;;;5053063;28;1667;-70
2021/04/14 07:44:22;;;;;;;;;;;20.40;56.40;;;;;;5053090;28;1291;-69
2021/04/14 07:46:48;;;;;;;;;;;20.40;56.50;;;;;;5035532;28;1608;-70
2021/04/14 07:49:14;;;;;;;;;;;20.40;56.40;;;;;;5052598;28;1647;-70
2021/04/14 07:51:39;;;;;;;;;;;20.40;56.50;;;;;;5018656;28;1961;-70
2021/04/14 07:54:14;;;;;;;;;;;20.40;56.50;;;;;;5052911;28;1423;-70
2021/04/14 07:56:40;;;;;;;;;;;20.40;57.10;;;;;;5035149;28;1749;-70
2021/04/14 07:59:05;;;;;;;;;;;20.30;56.40;;;;;;5034446;28;1678;-70
2021/04/14 08:01:31;;;;;;;;;;;20.30;56.50;;;;;;5052992;28;1185;-68
2021/04/14 08:04:10;;;;;;;;;;;20.30;56.50;;;;;;5052897;28;1480;-69
2021/04/14 08:06:35;;;;;;;;;;;20.30;56.50;;;;;;5035074;28;1830;-68
2021/04/14 08:09:10;;;;;;;;;;;20.30;56.50;;;;;;5052319;28;1567;-69
2021/04/14 08:11:37;;;;;;;;;;;20.30;56.50;;;;;;5035022;28;1902;-69
2021/04/14 08:14:12;;;;;;;;;;;20.30;56.50;;;;;;5035077;28;1449;-69
2021/04/14 08:16:42;;;;;;;;;;;20.30;56.50;;;;;;5052829;28;1355;-67
2021/04/14 08:19:21;;;;;;;;;;;20.30;56.50;;;;;;5052394;28;1334;-69
2021/04/14 08:21:55;;;;;;;;;;;20.30;56.50;;;;;;5018372;28;1439;-67
2021/04/14 08:24:29;;;;;;;;;;;20.30;56.50;;;;;;5052649;28;1757;-68
2021/04/14 08:26:55;;;;;;;;;;;20.30;56.60;;;;;;5021917;28;1720;-67
2021/04/14 08:29:21;;;;;;;;;;;20.30;56.60;;;;;;5017679;28;1894;-67
2021/04/14 08:34:13;;;;;;;;;;;20.30;56.60;;;;;;5039176;28;1664;-70
2021/04/14 08:36:40;;;;;;;;;;;20.30;56.60;;;;;;5038947;28;1779;-70
2021/04/14 08:39:09;;;;;;;;;;;20.20;56.60;;;;;;5038318;28;1567;-70
2021/04/14 08:41:35;;;;;;;;;;;20.20;56.60;;;;;;5038438;28;1326;-69
2021/04/14 08:44:13;;;;;;;;;;;20.30;56.70;;;;;;5021775;28;1511;-69
2021/04/14 08:46:40;;;;;;;;;;;20.20;56.60;;;;;;5056360;28;1591;-70
2021/04/14 08:49:14;;;;;;;;;;;20.30;56.70;;;;;;5055319;28;1681;-70
2021/04/14 08:51:43;;;;;;;;;;;20.20;56.60;;;;;;5038440;28;1906;-69
2021/04/14 08:54:10;;;;;;;;;;;20.20;56.70;;;;;;5038322;28;1439;-69
2021/04/14 08:56:38;;;;;;;;;;;20.20;56.70;;;;;;5021743;28;1622;-69
2021/04/14 08:59:04;;;;;;;;;;;20.20;56.70;;;;;;5038502;28;1256;-69
2021/04/14 09:01:31;;;;;;;;;;;20.20;56.70;;;;;;5056314;28;1452;-69
2021/04/14 09:03:56;;;;;;;;;;;20.20;56.70;;;;;;5038457;28;1693;-69
2021/04/14 09:06:22;;;;;;;;;;;20.20;56.70;;;;;;5038075;28;1714;-68
2021/04/14 09:08:52;;;;;;;;;;;20.20;56.80;;;;;;5054198;28;1401;-69
2021/04/14 09:11:23;;;;;;;;;;;20.20;56.80;;;;;;5038772;28;1902;-69
2021/04/14 09:13:50;;;;;;;;;;;20.20;56.80;;;;;;5051344;28;1383;-71
2021/04/14 09:16:29;;;;;;;;;;;20.10;56.80;;;;;;5055904;28;1376;-69
2021/04/14 09:19:03;;;;;;;;;;;20.10;56.80;;;;;;5051469;28;2071;-70
2021/04/14 09:21:29;;;;;;;;;;;20.20;56.80;;;;;;5033713;28;1183;-69
2021/04/14 09:23:55;;;;;;;;;;;20.10;56.80;;;;;;5037817;28;1350;-69
2021/04/14 09:26:28;;;;;;;;;;;20.20;56.80;;;;;;5025774;28;1410;-69
2021/04/14 09:28:54;;;;;;;;;;;20.10;56.80;;;;;;5031349;28;1447;-67
2021/04/14 09:31:41;;;;;;;;;;;20.20;56.90;;;;;;5050882;28;1910;-66
2021/04/14 09:34:30;;;;;;;;;;;20.10;56.80;;;;;;5038398;28;1699;-67
2021/04/14 09:37:21;;;;;;;;;;;20.10;56.80;;;;;;5044723;28;1398;-67
2021/04/14 09:39:51;;;;;;;;;;;20.10;56.80;;;;;;5019541;28;1498;-67
2021/04/14 09:42:17;;;;;;;;;;;20.10;56.80;;;;;;5051013;28;1381;-66
2021/04/14 09:44:46;;;;;;;;;;;20.10;56.80;;;;;;5018618;28;1936;-67
2021/04/14 09:47:11;;;;;;;;;;;20.10;56.80;;;;;;5034548;28;1507;-66
2021/04/14 09:49:38;;;;;;;;;;;20.10;56.90;;;;;;5053780;28;1909;-66
2021/04/14 09:52:04;;;;;;;;;;;20.10;56.80;;;;;;5042446;28;1672;-66
2021/04/14 09:54:31;;;;;;;;;;;20.10;56.80;;;;;;5019035;28;1180;-66
2021/04/14 09:56:58;;;;;;;;;;;20.10;56.80;;;;;;5052475;28;1159;-65
2021/04/14 09:59:42;;;;;;;;;;;20.10;56.80;;;;;;5035449;28;1224;-66
2021/04/14 10:02:09;;;;;;;;;;;20.10;56.80;;;;;;5053600;28;1116;-66
2021/04/14 10:04:35;;;;;;;;;;;20.10;56.80;;;;;;5051412;28;1087;-68
2021/04/14 10:07:05;;;;;;;;;;;20.10;56.80;;;;;;5034905;28;1155;-68
2021/04/14 10:09:32;;;;;;;;;;;20.10;56.80;;;;;;5035599;28;1969;-67
2021/04/14 10:12:07;;;;;;;;;;;20.10;56.80;;;;;;5035848;28;1156;-68
2021/04/14 10:14:39;;;;;;;;;;;20.10;56.90;;;;;;5034648;28;1530;-68
2021/04/14 10:17:05;;;;;;;;;;;20.10;56.80;;;;;;5053426;28;1072;-68
2021/04/14 10:19:31;;;;;;;;;;;20.10;56.80;;;;;;5035054;28;1369;-68
2021/04/14 10:21:57;;;;;;;;;;;20.10;56.90;;;;;;5052988;28;1128;-67
2021/04/14 10:24:22;;;;;;;;;;;20.10;56.90;;;;;;5035143;28;1072;-69
2021/04/14 10:26:57;;;;;;;;;;;20.10;56.90;;;;;;5022758;28;1073;-69
2021/04/14 10:29:24;;;;;;;;;;;20.10;56.90;;;;;;5034534;28;1994;-68
2021/04/14 10:31:50;;;;;;;;;;;20.10;56.90;;;;;;5043300;28;1344;-67
2021/04/14 10:34:27;;;;;;;;;;;20.10;56.90;;;;;;5051302;28;1102;-69
2021/04/14 10:36:53;;;;;;;;;;;20.10;56.90;;;;;;5034939;28;1378;-69
2021/04/14 10:39:26;;;;;;;;;;;20.10;56.90;;;;;;5033873;28;1346;-67
2021/04/14 10:41:53;;;;;;;;;;;20.10;56.90;;;;;;5042503;28;1069;-66
2021/04/14 10:44:20;;;;;;;;;;;20.10;56.90;;;;;;5034934;28;946;-65
2021/04/14 10:46:46;;;;;;;;;;;20.10;56.90;;;;;;5034322;28;1084;-66
2021/04/14 10:49:13;;;;;;;;;;;20.10;56.90;;;;;;5034320;28;1285;-66
2021/04/14 10:51:40;;;;;;;;;;;20.10;56.90;;;;;;5052039;28;1971;-67
2021/04/14 10:54:06;;;;;;;;;;;20.10;56.90;;;;;;5034414;28;1049;-67
2021/04/14 10:56:32;;;;;;;;;;;20.10;56.90;;;;;;5034371;28;1084;-67
2021/04/14 10:58:57;;;;;;;;;;;20.10;56.90;;;;;;5051914;28;1305;-68
2021/04/14 11:01:49;;;;;;;;;;;20.10;56.90;;;;;;5034080;28;1155;-69
2021/04/14 11:04:15;;;;;;;;;;;20.10;56.90;;;;;;5049092;28;1075;-70
2021/04/14 11:06:41;;;;;;;;;;;20.10;56.90;;;;;;5034014;28;1112;-66
2021/04/14 11:09:07;;;;;;;;;;;20.10;56.90;;;;;;5017435;28;1383;-69
2021/04/14 11:11:33;;;;;;;;;;;20.10;57.50;;;;;;5052258;28;1986;-69
2021/04/14 11:13:58;;;;;;;;;;;20.10;56.90;;;;;;5032921;28;1261;-68
2021/04/14 11:16:24;;;;;;;;;;;20.10;56.90;;;;;;5034146;28;1053;-68
2021/04/14 11:18:49;;;;;;;;;;;20.10;56.90;;;;;;5033945;28;1366;-68
2021/04/14 11:21:28;;;;;;;;;;;20.10;56.90;;;;;;5034102;28;1065;-68
2021/04/14 11:24:01;;;;;;;;;;;20.10;57.00;;;;;;5052352;28;1068;-68
2021/04/14 11:26:26;;;;;;;;;;;20.00;56.90;;;;;;5040101;28;1060;-68
2021/04/14 11:28:52;;;;;;;;;;;20.00;56.90;;;;;;5034128;28;1350;-67
2021/04/14 11:31:31;;;;;;;;;;;20.00;56.90;;;;;;5051976;28;1902;-68
2021/04/14 11:33:57;;;;;;;;;;;20.00;56.90;;;;;;5052100;28;1083;-68
2021/04/14 11:36:25;;;;;;;;;;;20.00;56.90;;;;;;5034277;28;1077;-68
2021/04/14 11:38:58;;;;;;;;;;;20.00;57.00;;;;;;5051409;28;1421;-68
2021/04/14 11:41:31;;;;;;;;;;;20.00;57.00;;;;;;5022693;28;1005;-68
2021/04/14 11:43:56;;;;;;;;;;;20.00;57.00;;;;;;5051789;28;1052;-66
2021/04/14 11:46:25;;;;;;;;;;;20.00;57.00;;;;;;5052067;28;1053;-66
2021/04/14 11:48:57;;;;;;;;;;;20.00;57.00;;;;;;5051286;28;1302;-67
2021/04/14 11:51:24;;;;;;;;;;;20.00;57.00;;;;;;5033790;28;1944;-68
2021/04/14 11:53:51;;;;;;;;;;;20.00;57.00;;;;;;5034112;28;1072;-68
2021/04/14 11:56:21;;;;;;;;;;;20.00;57.00;;;;;;5033940;28;1100;-67
2021/04/14 11:58:47;;;;;;;;;;;20.00;57.00;;;;;;5051185;28;1312;-68
2021/04/14 12:01:19;;;;;;;;;;;20.00;57.00;;;;;;5033752;28;1151;-68
2021/04/14 12:03:45;;;;;;;;;;;20.00;57.00;;;;;;5051312;28;1099;-67
2021/04/14 12:06:11;;;;;;;;;;;20.00;56.90;;;;;;5060997;28;1045;-68
2021/04/14 12:08:36;;;;;;;;;;;20.00;56.90;;;;;;5054778;28;1302;-69
2021/04/14 12:11:02;;;;;;;;;;;20.00;56.90;;;;;;5033697;28;1905;-69
2021/04/14 12:13:28;;;;;;;;;;;20.10;56.90;;;;;;5033466;28;1081;-67
2021/04/14 12:15:53;;;;;;;;;;;20.10;56.80;;;;;;5033686;28;1147;-68
2021/04/14 12:18:18;;;;;;;;;;;20.20;56.60;;;;;;5051088;28;1064;-69
2021/04/14 12:20:44;;;;;;;;;;;20.30;56.50;;;;;;5033795;28;1081;-69
2021/04/14 12:23:09;;;;;;;;;;;20.40;56.30;;;;;;5051681;28;1068;-69
2021/04/14 12:25:35;;;;;;;;;;;20.50;56.10;;;;;;5025292;28;1125;-69
2021/04/14 12:28:00;;;;;;;;;;;20.50;55.90;;;;;;5047317;28;1026;-69
2021/04/14 12:30:27;;;;;;;;;;;20.60;55.80;;;;;;5051188;28;1902;-69
2021/04/14 12:32:53;;;;;;;;;;;20.70;55.60;;;;;;5033182;28;1645;-69
2021/04/14 12:35:18;;;;;;;;;;;20.80;55.50;;;;;;5051343;28;1032;-68
2021/04/14 12:37:43;;;;;;;;;;;20.80;55.30;;;;;;5050583;28;1871;-69
2021/04/14 12:40:10;;;;;;;;;;;20.80;55.20;;;;;;5049053;28;1292;-71
2021/04/14 12:42:35;;;;;;;;;;;20.90;55.10;;;;;;5042765;28;1272;-68
2021/04/14 12:45:02;;;;;;;;;;;20.90;55.00;;;;;;5033372;28;1081;-69
2021/04/14 12:47:27;;;;;;;;;;;21.00;55.00;;;;;;5032928;28;1033;-69
2021/04/14 12:49:53;;;;;;;;;;;21.00;54.90;;;;;;5050914;28;1902;-69
2021/04/14 12:52:18;;;;;;;;;;;21.00;54.80;;;;;;5033588;28;1183;-70
2021/04/14 12:54:44;;;;;;;;;;;21.10;54.70;;;;;;5051089;28;1053;-71
2021/04/14 12:57:14;;;;;;;;;;;21.10;54.80;;;;;;5033007;28;1120;-71
2021/04/14 13:00:12;;;;;;;;;;;21.10;54.70;;;;;;5033295;28;1228;-70
2021/04/14 13:02:39;;;;;;;;;;;21.10;54.60;;;;;;5017442;28;1517;-72
2021/04/14 13:05:17;;;;;;;;;;;21.10;54.60;;;;;;5027355;28;1925;-71
2021/04/14 13:07:42;;;;;;;;;;;21.20;54.60;;;;;;5028582;28;1224;-71
2021/04/14 13:10:09;;;;;;;;;;;21.20;54.50;;;;;;5044424;28;1959;-71
2021/04/14 13:12:37;;;;;;;;;;;21.20;54.50;;;;;;5031282;28;1116;-71
2021/04/14 13:15:03;;;;;;;;;;;21.20;54.50;;;;;;5047792;28;1094;-71
2021/04/14 13:17:30;;;;;;;;;;;21.20;54.50;;;;;;5043388;28;1242;-70
2021/04/14 13:19:55;;;;;;;;;;;21.20;54.50;;;;;;5033711;28;1407;-71
2021/04/14 13:22:24;;;;;;;;;;;21.20;54.50;;;;;;5030540;28;1220;-72
2021/04/14 13:24:54;;;;;;;;;;;21.20;54.50;;;;;;5030921;28;1213;-69
2021/04/14 13:27:19;;;;;;;;;;;21.20;54.50;;;;;;5028044;28;1199;-71
2021/04/14 13:30:00;;;;;;;;;;;21.20;54.50;;;;;;5050337;28;1906;-70
2021/04/14 13:32:38;;;;;;;;;;;21.20;54.50;;;;;;5027880;28;1444;-71
2021/04/14 13:35:09;;;;;;;;;;;21.20;54.60;;;;;;5048209;28;1228;-71
2021/04/14 13:37:37;;;;;;;;;;;21.20;55.20;;;;;;5043677;28;1236;-71
2021/04/14 13:40:04;;;;;;;;;;;21.20;54.60;;;;;;5010312;28;1457;-70
2021/04/14 13:42:35;;;;;;;;;;;21.10;54.70;;;;;;5048342;28;1250;-70
2021/04/14 13:45:06;;;;;;;;;;;21.10;54.70;;;;;;5027720;28;1228;-70
2021/04/14 13:47:51;;;;;;;;;;;21.10;54.70;;;;;;5029547;28;1205;-71
2021/04/14 13:50:19;;;;;;;;;;;21.10;54.80;;;;;;5046523;28;1901;-71
2021/04/14 13:52:44;;;;;;;;;;;21.10;55.40;;;;;;5031803;28;1230;-69
2021/04/14 13:55:10;;;;;;;;;;;21.10;54.90;;;;;;5027284;28;1263;-70
2021/04/14 13:57:46;;;;;;;;;;;21.10;54.90;;;;;;5043666;28;1063;-71
2021/04/14 14:00:16;;;;;;;;;;;21.00;54.90;;;;;;5030182;28;1324;-71
2021/04/14 14:02:43;;;;;;;;;;;21.00;55.00;;;;;;5027787;28;1432;-70
2021/04/14 14:05:11;;;;;;;;;;;21.00;55.00;;;;;;5025747;28;1173;-70
2021/04/14 14:07:38;;;;;;;;;;;21.00;55.00;;;;;;5027830;28;1194;-70
2021/04/14 14:10:05;;;;;;;;;;;21.00;55.10;;;;;;5015668;28;1898;-70
2021/04/14 14:12:33;;;;;;;;;;;20.90;55.10;;;;;;5027481;28;1197;-71
2021/04/14 14:14:59;;;;;;;;;;;20.90;55.10;;;;;;5014298;28;1188;-71
2021/04/14 14:17:26;;;;;;;;;;;20.90;55.20;;;;;;5049665;28;1397;-71
2021/04/14 14:19:51;;;;;;;;;;;20.90;55.20;;;;;;5026433;28;1265;-72
2021/04/14 14:22:19;;;;;;;;;;;20.90;55.30;;;;;;5027331;28;1264;-72
2021/04/14 14:24:44;;;;;;;;;;;20.90;55.20;;;;;;5046120;28;1172;-71
2021/04/14 14:27:10;;;;;;;;;;;20.90;55.30;;;;;;5044991;28;1235;-70
2021/04/14 14:29:36;;;;;;;;;;;20.90;55.30;;;;;;5033355;28;1890;-71
2021/04/14 14:32:03;;;;;;;;;;;21.00;55.90;;;;;;5035304;28;1076;-71
2021/04/14 14:34:29;;;;;;;;;;;20.90;55.20;;;;;;5035394;28;1069;-70